createdAt,value
2017-10-13T00:00:04.081Z,13.76
2017-10-13T00:00:08.341Z,13.63
2017-10-13T00:00:12.834Z,13.61
2017-10-13T00:00:17.059Z,13.62
2017-10-13T00:00:21.563Z,13.66
2017-10-13T00:00:25.809Z,13.63
2017-10-13T00:00:30.339Z,13.65
2017-10-13T00:00:34.460Z,13.66
2017-10-13T00:00:38.571Z,13.65
2017-10-13T00:00:42.542Z,13.57
2017-10-13T00:00:46.635Z,13.63
2017-10-13T00:00:50.875Z,13.59
2017-10-13T00:00:54.969Z,13.65
2017-10-13T00:00:59.333Z,13.62
2017-10-13T00:01:03.566Z,13.73
2017-10-13T00:01:07.800Z,13.62
2017-10-13T00:01:12.159Z,13.62
2017-10-13T00:01:16.787Z,13.66
2017-10-13T00:01:21.028Z,13.68
2017-10-13T00:01:25.525Z,13.62
2017-10-13T00:01:30.032Z,13.61
2017-10-13T00:01:34.268Z,13.69
2017-10-13T00:01:38.365Z,13.62
2017-10-13T00:01:42.467Z,13.63
2017-10-13T00:01:46.829Z,13.55
2017-10-13T00:01:50.796Z,13.66
2017-10-13T00:01:55.030Z,13.65
2017-10-13T00:01:59.123Z,13.61
2017-10-13T00:02:03.218Z,13.66
2017-10-13T00:02:07.322Z,13.61
2017-10-13T00:02:11.685Z,13.61
2017-10-13T00:02:15.916Z,13.62
2017-10-13T00:02:20.287Z,13.63
2017-10-13T00:02:24.659Z,13.69
2017-10-13T00:02:28.754Z,13.65
2017-10-13T00:02:32.983Z,13.59
2017-10-13T00:02:37.215Z,13.59
2017-10-13T00:02:41.327Z,13.55
2017-10-13T00:02:45.293Z,13.65
2017-10-13T00:02:49.523Z,13.63
2017-10-13T00:02:54.059Z,13.65
2017-10-13T00:02:58.161Z,13.59
2017-10-13T00:03:02.178Z,13.63
2017-10-13T00:03:06.013Z,13.59
2017-10-13T00:03:10.375Z,13.57
2017-10-13T00:03:14.475Z,13.66
2017-10-13T00:03:18.447Z,13.62
2017-10-13T00:03:22.416Z,13.55
2017-10-13T00:03:26.777Z,13.57
2017-10-13T00:03:31.010Z,13.57
2017-10-13T00:03:35.239Z,13.59
2017-10-13T00:03:39.336Z,13.63
2017-10-13T00:03:43.435Z,13.61
2017-10-13T00:03:47.679Z,13.68
2017-10-13T00:03:52.170Z,13.59
2017-10-13T00:03:56.139Z,13.65
2017-10-13T00:04:00.371Z,13.59
2017-10-13T00:04:04.620Z,13.65
2017-10-13T00:04:08.981Z,13.63
2017-10-13T00:04:13.079Z,13.63
2017-10-13T00:04:17.188Z,13.66
2017-10-13T00:04:21.285Z,13.59
2017-10-13T00:04:25.790Z,13.61
2017-10-13T00:04:30.021Z,13.65
2017-10-13T00:04:34.249Z,13.59
2017-10-13T00:04:38.612Z,13.61
2017-10-13T00:04:43.101Z,13.62
2017-10-13T00:04:47.590Z,13.53
2017-10-13T00:04:51.561Z,13.61
2017-10-13T00:04:55.945Z,13.57
2017-10-13T00:05:00.444Z,13.57
2017-10-13T00:05:04.963Z,13.53
2017-10-13T00:05:09.337Z,13.61
2017-10-13T00:05:13.439Z,13.54
2017-10-13T00:05:17.546Z,13.65
2017-10-13T00:05:21.776Z,13.5
2017-10-13T00:05:26.274Z,13.62
2017-10-13T00:05:30.501Z,13.55
2017-10-13T00:05:34.466Z,13.54
2017-10-13T00:05:38.747Z,13.62
2017-10-13T00:05:42.849Z,13.51
2017-10-13T00:05:47.345Z,13.59
2017-10-13T00:05:51.580Z,13.55
2017-10-13T00:05:55.816Z,13.55
2017-10-13T00:06:00.057Z,13.57
2017-10-13T00:06:04.428Z,13.59
2017-10-13T00:06:08.552Z,13.53
2017-10-13T00:06:12.777Z,13.62
2017-10-13T00:06:17.016Z,13.55
2017-10-13T00:06:21.249Z,13.5
2017-10-13T00:06:25.355Z,13.55
2017-10-13T00:06:29.586Z,13.55
2017-10-13T00:06:33.819Z,13.62
2017-10-13T00:06:38.185Z,13.62
2017-10-13T00:06:42.422Z,13.54
2017-10-13T00:06:46.391Z,13.61
2017-10-13T00:06:50.628Z,13.61
2017-10-13T00:06:54.722Z,13.55
2017-10-13T00:06:58.687Z,13.55
2017-10-13T00:07:02.863Z,13.59
2017-10-13T00:07:06.829Z,13.59
2017-10-13T00:07:11.201Z,13.57
2017-10-13T00:07:15.825Z,13.46
2017-10-13T00:07:20.190Z,13.61
2017-10-13T00:07:24.293Z,13.61
2017-10-13T00:07:28.401Z,13.53
2017-10-13T00:07:32.898Z,13.61
2017-10-13T00:07:37.126Z,13.59
2017-10-13T00:07:41.099Z,13.57
2017-10-13T00:07:45.209Z,13.5
2017-10-13T00:07:49.305Z,13.61
2017-10-13T00:07:53.542Z,13.53
2017-10-13T00:07:57.646Z,13.5
2017-10-13T00:08:01.873Z,13.53
2017-10-13T00:08:05.972Z,13.47
2017-10-13T00:08:10.073Z,13.48
2017-10-13T00:08:14.433Z,13.57
2017-10-13T00:08:18.657Z,13.54
2017-10-13T00:08:23.021Z,13.54
2017-10-13T00:08:27.390Z,13.46
2017-10-13T00:08:31.619Z,13.55
2017-10-13T00:08:35.852Z,13.51
2017-10-13T00:08:39.948Z,13.57
2017-10-13T00:08:44.169Z,13.5
2017-10-13T00:08:48.141Z,13.5
2017-10-13T00:08:52.111Z,13.53
2017-10-13T00:08:56.337Z,13.55
2017-10-13T00:09:00.433Z,13.51
2017-10-13T00:09:04.796Z,13.48
2017-10-13T00:09:09.155Z,13.5
2017-10-13T00:09:13.672Z,13.53
2017-10-13T00:09:18.153Z,13.48
2017-10-13T00:09:22.512Z,13.53
2017-10-13T00:09:26.609Z,13.54
2017-10-13T00:09:30.845Z,13.48
2017-10-13T00:09:35.079Z,13.53
2017-10-13T00:09:39.040Z,13.59
2017-10-13T00:09:43.270Z,13.46
2017-10-13T00:09:47.387Z,13.54
2017-10-13T00:09:51.464Z,13.51
2017-10-13T00:09:55.430Z,13.51
2017-10-13T00:09:59.662Z,13.57
2017-10-13T00:10:03.830Z,13.57
2017-10-13T00:10:07.926Z,13.54
2017-10-13T00:10:12.156Z,13.54
2017-10-13T00:10:16.386Z,13.55
2017-10-13T00:10:20.612Z,13.59
2017-10-13T00:10:24.841Z,13.57
2017-10-13T00:10:28.830Z,13.55
2017-10-13T00:10:33.072Z,13.55
2017-10-13T00:10:37.166Z,13.48
2017-10-13T00:10:41.002Z,13.54
2017-10-13T00:10:44.970Z,13.54
2017-10-13T00:10:48.937Z,13.47
2017-10-13T00:10:53.431Z,13.48
2017-10-13T00:10:57.792Z,13.54
2017-10-13T00:11:02.144Z,13.51
2017-10-13T00:11:06.643Z,13.59
2017-10-13T00:11:11.000Z,13.53
2017-10-13T00:11:15.226Z,13.59
2017-10-13T00:11:19.456Z,13.48
2017-10-13T00:11:23.681Z,13.47
2017-10-13T00:11:27.648Z,13.54
2017-10-13T00:11:31.884Z,13.59
2017-10-13T00:11:36.245Z,13.46
2017-10-13T00:11:40.342Z,13.5
2017-10-13T00:11:44.441Z,13.55
2017-10-13T00:11:48.677Z,13.51
2017-10-13T00:11:52.904Z,13.46
2017-10-13T00:11:56.875Z,13.57
2017-10-13T00:12:00.976Z,13.57
2017-10-13T00:12:05.363Z,13.54
2017-10-13T00:12:09.463Z,13.55
2017-10-13T00:12:13.691Z,13.51
2017-10-13T00:12:17.925Z,13.47
2017-10-13T00:12:22.283Z,13.53
2017-10-13T00:12:26.517Z,13.53
2017-10-13T00:12:30.888Z,13.59
2017-10-13T00:12:35.114Z,13.59
2017-10-13T00:12:39.079Z,13.46
2017-10-13T00:12:43.183Z,13.5
2017-10-13T00:12:47.410Z,13.59
2017-10-13T00:12:51.650Z,13.53
2017-10-13T00:12:55.617Z,13.55
2017-10-13T00:12:59.584Z,13.46
2017-10-13T00:13:03.997Z,13.47
2017-10-13T00:13:08.230Z,13.57
2017-10-13T00:13:12.334Z,13.59
2017-10-13T00:13:16.560Z,13.57
2017-10-13T00:13:20.916Z,13.59
2017-10-13T00:13:24.887Z,13.53
2017-10-13T00:13:28.985Z,13.55
2017-10-13T00:13:33.082Z,13.63
2017-10-13T00:13:37.314Z,13.55
2017-10-13T00:13:41.409Z,13.62
2017-10-13T00:13:45.373Z,13.61
2017-10-13T00:13:49.341Z,13.57
2017-10-13T00:13:53.578Z,13.59
2017-10-13T00:13:57.808Z,13.57
2017-10-13T00:14:02.058Z,13.59
2017-10-13T00:14:06.427Z,13.65
2017-10-13T00:14:10.256Z,13.62
2017-10-13T00:14:14.608Z,13.59
2017-10-13T00:14:18.575Z,13.61
2017-10-13T00:14:22.680Z,13.57
2017-10-13T00:14:27.039Z,13.65
2017-10-13T00:14:30.876Z,13.65
2017-10-13T00:14:35.243Z,13.54
2017-10-13T00:14:39.208Z,13.63
2017-10-13T00:14:43.308Z,13.59
2017-10-13T00:14:47.540Z,13.53
2017-10-13T00:14:51.921Z,13.51
2017-10-13T00:14:55.883Z,13.63
2017-10-13T00:15:00.114Z,13.63
2017-10-13T00:15:04.615Z,13.63
2017-10-13T00:15:08.851Z,13.55
2017-10-13T00:15:13.086Z,13.61
2017-10-13T00:15:17.321Z,13.61
2017-10-13T00:15:21.289Z,13.68
2017-10-13T00:15:25.258Z,13.62
2017-10-13T00:15:29.614Z,13.62
2017-10-13T00:15:33.973Z,13.57
2017-10-13T00:15:38.076Z,13.57
2017-10-13T00:15:42.308Z,13.61
2017-10-13T00:15:46.406Z,13.59
2017-10-13T00:15:50.507Z,13.61
2017-10-13T00:15:54.735Z,13.55
2017-10-13T00:15:58.833Z,13.53
2017-10-13T00:16:02.925Z,13.55
2017-10-13T00:16:06.894Z,13.55
2017-10-13T00:16:11.122Z,13.61
2017-10-13T00:16:15.087Z,13.57
2017-10-13T00:16:19.186Z,13.59
2017-10-13T00:16:23.160Z,13.59
2017-10-13T00:16:27.661Z,13.53
2017-10-13T00:16:31.631Z,13.62
2017-10-13T00:16:35.596Z,13.66
2017-10-13T00:16:39.693Z,13.65
2017-10-13T00:16:43.791Z,13.66
2017-10-13T00:16:48.148Z,13.61
2017-10-13T00:16:52.112Z,13.63
2017-10-13T00:16:56.215Z,13.68
2017-10-13T00:17:00.441Z,13.66
2017-10-13T00:17:04.276Z,13.57
2017-10-13T00:17:08.643Z,13.63
2017-10-13T00:17:13.004Z,13.63
2017-10-13T00:17:17.230Z,13.55
2017-10-13T00:17:21.463Z,13.54
2017-10-13T00:17:25.692Z,13.55
2017-10-13T00:17:29.787Z,13.55
2017-10-13T00:17:33.881Z,13.57
2017-10-13T00:17:37.718Z,13.59
2017-10-13T00:17:41.944Z,13.63
2017-10-13T00:17:46.310Z,13.59
2017-10-13T00:17:50.286Z,13.55
2017-10-13T00:17:54.376Z,13.63
2017-10-13T00:17:58.474Z,13.54
2017-10-13T00:18:03.132Z,13.57
2017-10-13T00:18:07.107Z,13.65
2017-10-13T00:18:11.212Z,13.55
2017-10-13T00:18:15.313Z,13.61
2017-10-13T00:18:19.278Z,13.55
2017-10-13T00:18:23.676Z,13.55
2017-10-13T00:18:27.771Z,13.59
2017-10-13T00:18:31.862Z,13.57
2017-10-13T00:18:35.828Z,13.62
2017-10-13T00:18:40.055Z,13.63
2017-10-13T00:18:44.405Z,13.61
2017-10-13T00:18:48.500Z,13.65
2017-10-13T00:18:52.863Z,13.55
2017-10-13T00:18:57.097Z,13.65
2017-10-13T00:19:01.330Z,13.59
2017-10-13T00:19:05.560Z,13.62
2017-10-13T00:19:09.395Z,13.63
2017-10-13T00:19:13.620Z,13.61
2017-10-13T00:19:18.270Z,13.63
2017-10-13T00:19:22.505Z,13.61
2017-10-13T00:19:26.469Z,13.62
2017-10-13T00:19:30.573Z,13.59
2017-10-13T00:19:34.541Z,13.61
2017-10-13T00:19:38.769Z,13.62
2017-10-13T00:19:43.001Z,13.63
2017-10-13T00:19:46.967Z,13.63
2017-10-13T00:19:50.928Z,13.62
2017-10-13T00:19:55.154Z,13.63
2017-10-13T00:19:59.384Z,13.61
2017-10-13T00:20:03.464Z,13.61
2017-10-13T00:20:07.561Z,13.57
2017-10-13T00:20:11.531Z,13.55
2017-10-13T00:20:15.903Z,13.63
2017-10-13T00:20:20.004Z,13.61
2017-10-13T00:20:23.838Z,13.61
2017-10-13T00:20:28.093Z,13.65
2017-10-13T00:20:32.456Z,13.63
2017-10-13T00:20:36.691Z,13.63
2017-10-13T00:20:40.530Z,13.62
2017-10-13T00:20:44.637Z,13.61
2017-10-13T00:20:49.127Z,13.61
2017-10-13T00:20:53.498Z,13.65
2017-10-13T00:20:57.877Z,13.61
2017-10-13T00:21:02.338Z,13.61
2017-10-13T00:21:06.304Z,13.65
2017-10-13T00:21:10.277Z,13.63
2017-10-13T00:21:14.499Z,13.68
2017-10-13T00:21:18.592Z,13.66
2017-10-13T00:21:22.820Z,13.66
2017-10-13T00:21:27.183Z,13.66
2017-10-13T00:21:31.282Z,13.66
2017-10-13T00:21:35.520Z,13.65
2017-10-13T00:21:39.606Z,13.66
2017-10-13T00:21:43.841Z,13.63
2017-10-13T00:21:48.074Z,13.63
2017-10-13T00:21:52.298Z,13.55
2017-10-13T00:21:56.262Z,13.65
2017-10-13T00:22:00.226Z,13.59
2017-10-13T00:22:04.660Z,13.62
2017-10-13T00:22:08.759Z,13.59
2017-10-13T00:22:12.994Z,13.65
2017-10-13T00:22:17.258Z,13.65
2017-10-13T00:22:21.359Z,13.61
2017-10-13T00:22:25.329Z,13.61
2017-10-13T00:22:29.569Z,13.59
2017-10-13T00:22:33.668Z,13.69
2017-10-13T00:22:37.902Z,13.63
2017-10-13T00:22:41.869Z,13.62
2017-10-13T00:22:45.843Z,13.59
2017-10-13T00:22:50.067Z,13.61
2017-10-13T00:22:54.300Z,13.65
2017-10-13T00:22:58.535Z,13.59
2017-10-13T00:23:02.636Z,13.65
2017-10-13T00:23:06.744Z,13.62
2017-10-13T00:23:11.113Z,13.66
2017-10-13T00:23:15.342Z,13.59
2017-10-13T00:23:19.439Z,13.62
2017-10-13T00:23:23.800Z,13.63
2017-10-13T00:23:27.927Z,13.66
2017-10-13T00:23:32.154Z,13.62
2017-10-13T00:23:36.251Z,13.59
2017-10-13T00:23:40.373Z,13.61
2017-10-13T00:23:44.211Z,13.61
2017-10-13T00:23:48.172Z,13.65
2017-10-13T00:23:52.276Z,13.62
2017-10-13T00:23:56.501Z,13.61
2017-10-13T00:24:00.471Z,13.62
2017-10-13T00:24:04.440Z,13.63
2017-10-13T00:24:08.671Z,13.59
2017-10-13T00:24:12.774Z,13.65
2017-10-13T00:24:17.004Z,13.68
2017-10-13T00:24:21.241Z,13.62
2017-10-13T00:24:25.338Z,13.62
2017-10-13T00:24:29.433Z,13.62
2017-10-13T00:24:33.405Z,13.63
2017-10-13T00:24:37.636Z,13.65
2017-10-13T00:24:41.729Z,13.65
2017-10-13T00:24:45.955Z,13.66
2017-10-13T00:24:50.186Z,13.61
2017-10-13T00:24:54.281Z,13.66
2017-10-13T00:24:58.261Z,13.62
2017-10-13T00:25:02.535Z,13.63
2017-10-13T00:25:07.029Z,13.62
2017-10-13T00:25:11.388Z,13.69
2017-10-13T00:25:15.751Z,13.72
2017-10-13T00:25:20.118Z,13.62
2017-10-13T00:25:24.351Z,13.72
2017-10-13T00:25:28.320Z,13.69
2017-10-13T00:25:32.549Z,13.73
2017-10-13T00:25:36.822Z,13.62
2017-10-13T00:25:40.912Z,13.72
2017-10-13T00:25:45.290Z,13.61
2017-10-13T00:25:49.685Z,13.72
2017-10-13T00:25:54.040Z,13.68
2017-10-13T00:25:58.280Z,13.65
2017-10-13T00:26:02.380Z,13.69
2017-10-13T00:26:06.618Z,13.65
2017-10-13T00:26:10.715Z,13.65
2017-10-13T00:26:14.967Z,13.72
2017-10-13T00:26:19.208Z,13.73
2017-10-13T00:26:23.431Z,13.69
2017-10-13T00:26:27.399Z,13.69
2017-10-13T00:26:31.363Z,13.73
2017-10-13T00:26:35.334Z,13.73
2017-10-13T00:26:39.568Z,13.72
2017-10-13T00:26:43.680Z,13.63
2017-10-13T00:26:47.655Z,13.73
2017-10-13T00:26:51.754Z,13.72
2017-10-13T00:26:55.997Z,13.68
2017-10-13T00:27:00.404Z,13.73
2017-10-13T00:27:04.752Z,13.72
2017-10-13T00:27:08.979Z,13.73
2017-10-13T00:27:13.215Z,13.73
2017-10-13T00:27:17.853Z,13.73
2017-10-13T00:27:22.077Z,13.73
2017-10-13T00:27:26.585Z,13.65
2017-10-13T00:27:30.702Z,13.73
2017-10-13T00:27:34.926Z,13.65
2017-10-13T00:27:39.022Z,13.73
2017-10-13T00:27:43.515Z,13.65
2017-10-13T00:27:47.482Z,13.65
2017-10-13T00:27:51.712Z,13.68
2017-10-13T00:27:55.944Z,13.65
2017-10-13T00:27:59.917Z,13.65
2017-10-13T00:28:04.190Z,13.63
2017-10-13T00:28:08.163Z,13.66
2017-10-13T00:28:12.662Z,13.76
2017-10-13T00:28:16.776Z,13.72
2017-10-13T00:28:21.270Z,13.69
2017-10-13T00:28:25.530Z,13.72
2017-10-13T00:28:29.757Z,13.69
2017-10-13T00:28:33.993Z,13.73
2017-10-13T00:28:38.228Z,13.72
2017-10-13T00:28:42.597Z,13.71
2017-10-13T00:28:46.825Z,13.68
2017-10-13T00:28:50.786Z,13.68
2017-10-13T00:28:54.886Z,13.68
2017-10-13T00:28:58.985Z,13.76
2017-10-13T00:29:03.595Z,13.73
2017-10-13T00:29:07.964Z,13.62
2017-10-13T00:29:12.329Z,13.68
2017-10-13T00:29:16.566Z,13.68
2017-10-13T00:29:20.807Z,13.71
2017-10-13T00:29:25.201Z,13.73
2017-10-13T00:29:29.296Z,13.63
2017-10-13T00:29:33.390Z,13.76
2017-10-13T00:29:37.489Z,13.69
2017-10-13T00:29:41.716Z,13.65
2017-10-13T00:29:45.556Z,13.71
2017-10-13T00:29:49.524Z,13.66
2017-10-13T00:29:53.498Z,13.66
2017-10-13T00:29:57.467Z,13.71
2017-10-13T00:30:01.812Z,13.72
2017-10-13T00:30:05.658Z,13.68
2017-10-13T00:30:09.906Z,13.72
2017-10-13T00:30:14.270Z,13.65
2017-10-13T00:30:18.773Z,13.68
2017-10-13T00:30:22.867Z,13.69
2017-10-13T00:30:26.965Z,13.75
2017-10-13T00:30:31.069Z,13.72
2017-10-13T00:30:35.574Z,13.72
2017-10-13T00:30:39.407Z,13.69
2017-10-13T00:30:43.767Z,13.68
2017-10-13T00:30:47.866Z,13.72
2017-10-13T00:30:51.986Z,13.66
2017-10-13T00:30:56.225Z,13.71
2017-10-13T00:31:00.318Z,13.71
2017-10-13T00:31:04.594Z,13.79
2017-10-13T00:31:08.950Z,13.73
2017-10-13T00:31:12.926Z,13.72
2017-10-13T00:31:17.171Z,13.66
2017-10-13T00:31:21.657Z,13.73
2017-10-13T00:31:26.015Z,13.69
2017-10-13T00:31:30.111Z,13.71
2017-10-13T00:31:34.213Z,13.73
2017-10-13T00:31:38.576Z,13.72
2017-10-13T00:31:42.679Z,13.68
2017-10-13T00:31:47.044Z,13.69
2017-10-13T00:31:51.007Z,13.69
2017-10-13T00:31:55.497Z,13.69
2017-10-13T00:31:59.613Z,13.73
2017-10-13T00:32:03.980Z,13.69
2017-10-13T00:32:08.215Z,13.71
2017-10-13T00:32:12.573Z,13.79
2017-10-13T00:32:16.543Z,13.65
2017-10-13T00:32:20.775Z,13.65
2017-10-13T00:32:25.265Z,13.75
2017-10-13T00:32:29.513Z,13.66
2017-10-13T00:32:33.752Z,13.72
2017-10-13T00:32:37.986Z,13.66
2017-10-13T00:32:42.349Z,13.68
2017-10-13T00:32:46.574Z,13.72
2017-10-13T00:32:51.065Z,13.66
2017-10-13T00:32:55.042Z,13.69
2017-10-13T00:32:59.272Z,13.68
2017-10-13T00:33:03.387Z,13.72
2017-10-13T00:33:07.494Z,13.72
2017-10-13T00:33:11.461Z,13.69
2017-10-13T00:33:15.686Z,13.69
2017-10-13T00:33:19.650Z,13.71
2017-10-13T00:33:23.885Z,13.69
2017-10-13T00:33:27.986Z,13.73
2017-10-13T00:33:32.359Z,13.73
2017-10-13T00:33:36.460Z,13.71
2017-10-13T00:33:40.959Z,13.71
2017-10-13T00:33:45.325Z,13.68
2017-10-13T00:33:49.701Z,13.68
2017-10-13T00:33:53.936Z,13.73
2017-10-13T00:33:58.162Z,13.68
2017-10-13T00:34:02.730Z,13.66
2017-10-13T00:34:06.845Z,13.68
2017-10-13T00:34:11.073Z,13.72
2017-10-13T00:34:15.301Z,13.73
2017-10-13T00:34:19.670Z,13.76
2017-10-13T00:34:23.771Z,13.65
2017-10-13T00:34:28.388Z,13.75
2017-10-13T00:34:32.482Z,13.66
2017-10-13T00:34:36.855Z,13.72
2017-10-13T00:34:40.973Z,13.71
2017-10-13T00:34:45.066Z,13.71
2017-10-13T00:34:49.429Z,13.71
2017-10-13T00:34:53.793Z,13.69
2017-10-13T00:34:58.019Z,13.73
2017-10-13T00:35:02.256Z,13.68
2017-10-13T00:35:06.645Z,13.69
2017-10-13T00:35:10.871Z,13.68
2017-10-13T00:35:14.975Z,13.79
2017-10-13T00:35:19.215Z,13.68
2017-10-13T00:35:23.444Z,13.71
2017-10-13T00:35:27.801Z,13.79
2017-10-13T00:35:32.044Z,13.72
2017-10-13T00:35:36.150Z,13.68
2017-10-13T00:35:40.507Z,13.72
2017-10-13T00:35:44.614Z,13.63
2017-10-13T00:35:48.721Z,13.65
2017-10-13T00:35:53.220Z,13.73
2017-10-13T00:35:57.313Z,13.65
2017-10-13T00:36:01.802Z,13.69
2017-10-13T00:36:06.103Z,13.71
2017-10-13T00:36:10.065Z,13.72
2017-10-13T00:36:14.043Z,13.73
2017-10-13T00:36:18.419Z,13.69
2017-10-13T00:36:22.648Z,13.73
2017-10-13T00:36:26.738Z,13.71
2017-10-13T00:36:31.097Z,13.66
2017-10-13T00:36:35.330Z,13.73
2017-10-13T00:36:39.566Z,13.73
2017-10-13T00:36:43.531Z,13.72
2017-10-13T00:36:47.760Z,13.68
2017-10-13T00:36:52.165Z,13.71
2017-10-13T00:36:56.387Z,13.69
2017-10-13T00:37:00.493Z,13.76
2017-10-13T00:37:04.562Z,13.71
2017-10-13T00:37:08.933Z,13.69
2017-10-13T00:37:13.291Z,13.63
2017-10-13T00:37:17.397Z,13.65
2017-10-13T00:37:21.630Z,13.68
2017-10-13T00:37:25.855Z,13.59
2017-10-13T00:37:30.091Z,13.73
2017-10-13T00:37:34.183Z,13.61
2017-10-13T00:37:38.153Z,13.72
2017-10-13T00:37:42.124Z,13.63
2017-10-13T00:37:46.647Z,13.65
2017-10-13T00:37:50.748Z,13.65
2017-10-13T00:37:55.113Z,13.63
2017-10-13T00:37:58.958Z,13.65
2017-10-13T00:38:02.975Z,13.68
2017-10-13T00:38:07.199Z,13.65
2017-10-13T00:38:11.434Z,13.62
2017-10-13T00:38:15.815Z,13.63
2017-10-13T00:38:19.778Z,13.65
2017-10-13T00:38:24.008Z,13.57
2017-10-13T00:38:28.107Z,13.63
2017-10-13T00:38:32.344Z,13.62
2017-10-13T00:38:36.834Z,13.63
2017-10-13T00:38:40.814Z,13.61
2017-10-13T00:38:45.042Z,13.61
2017-10-13T00:38:49.401Z,13.62
2017-10-13T00:38:53.643Z,13.55
2017-10-13T00:38:57.756Z,13.61
2017-10-13T00:39:01.728Z,13.61
2017-10-13T00:39:05.826Z,13.59
2017-10-13T00:39:10.338Z,13.61
2017-10-13T00:39:14.311Z,13.63
2017-10-13T00:39:18.548Z,13.62
2017-10-13T00:39:22.385Z,13.63
2017-10-13T00:39:26.616Z,13.61
2017-10-13T00:39:30.719Z,13.59
2017-10-13T00:39:34.689Z,13.62
2017-10-13T00:39:38.786Z,13.59
2017-10-13T00:39:42.901Z,13.61
2017-10-13T00:39:47.133Z,13.61
2017-10-13T00:39:51.491Z,13.55
2017-10-13T00:39:55.451Z,13.65
2017-10-13T00:39:59.816Z,13.61
2017-10-13T00:40:04.178Z,13.62
2017-10-13T00:40:08.414Z,13.57
2017-10-13T00:40:12.518Z,13.55
2017-10-13T00:40:16.880Z,13.62
2017-10-13T00:40:21.245Z,13.57
2017-10-13T00:40:25.478Z,13.63
2017-10-13T00:40:29.701Z,13.63
2017-10-13T00:40:33.799Z,13.55
2017-10-13T00:40:38.027Z,13.61
2017-10-13T00:40:42.383Z,13.53
2017-10-13T00:40:46.484Z,13.57
2017-10-13T00:40:50.710Z,13.62
2017-10-13T00:40:54.951Z,13.59
2017-10-13T00:40:59.319Z,13.55
2017-10-13T00:41:03.698Z,13.66
2017-10-13T00:41:08.082Z,13.51
2017-10-13T00:41:12.052Z,13.61
2017-10-13T00:41:16.150Z,13.63
2017-10-13T00:41:20.521Z,13.57
2017-10-13T00:41:24.877Z,13.59
2017-10-13T00:41:28.981Z,13.54
2017-10-13T00:41:32.943Z,13.55
2017-10-13T00:41:37.306Z,13.63
2017-10-13T00:41:41.540Z,13.51
2017-10-13T00:41:45.900Z,13.55
2017-10-13T00:41:49.992Z,13.65
2017-10-13T00:41:54.228Z,13.59
2017-10-13T00:41:58.453Z,13.61
2017-10-13T00:42:02.602Z,13.62
2017-10-13T00:42:06.703Z,13.51
2017-10-13T00:42:10.671Z,13.55
2017-10-13T00:42:14.903Z,13.57
2017-10-13T00:42:19.273Z,13.54
2017-10-13T00:42:23.389Z,13.55
2017-10-13T00:42:27.503Z,13.57
2017-10-13T00:42:31.868Z,13.53
2017-10-13T00:42:36.106Z,13.61
2017-10-13T00:42:39.944Z,13.61
2017-10-13T00:42:43.908Z,13.62
2017-10-13T00:42:48.277Z,13.61
2017-10-13T00:42:52.637Z,13.55
2017-10-13T00:42:56.603Z,13.54
2017-10-13T00:43:00.846Z,13.59
2017-10-13T00:43:05.086Z,13.59
2017-10-13T00:43:09.581Z,13.59
2017-10-13T00:43:13.686Z,13.51
2017-10-13T00:43:18.192Z,13.54
2017-10-13T00:43:22.557Z,13.59
2017-10-13T00:43:26.654Z,13.5
2017-10-13T00:43:31.024Z,13.54
2017-10-13T00:43:35.112Z,13.55
2017-10-13T00:43:39.478Z,13.55
2017-10-13T00:43:43.854Z,13.59
2017-10-13T00:43:47.820Z,13.62
2017-10-13T00:43:52.059Z,13.51
2017-10-13T00:43:56.022Z,13.53
2017-10-13T00:43:59.994Z,13.5
2017-10-13T00:44:04.656Z,13.47
2017-10-13T00:44:08.887Z,13.44
2017-10-13T00:44:13.258Z,13.48
2017-10-13T00:44:17.360Z,13.51
2017-10-13T00:44:21.589Z,13.5
2017-10-13T00:44:25.557Z,13.57
2017-10-13T00:44:29.790Z,13.55
2017-10-13T00:44:33.751Z,13.51
2017-10-13T00:44:37.852Z,13.5
2017-10-13T00:44:42.088Z,13.47
2017-10-13T00:44:46.050Z,13.53
2017-10-13T00:44:50.150Z,13.55
2017-10-13T00:44:54.262Z,13.48
2017-10-13T00:44:58.490Z,13.55
2017-10-13T00:45:02.857Z,13.48
2017-10-13T00:45:07.227Z,13.46
2017-10-13T00:45:11.456Z,13.53
2017-10-13T00:45:15.424Z,13.48
2017-10-13T00:45:19.532Z,13.48
2017-10-13T00:45:23.786Z,13.48
2017-10-13T00:45:28.285Z,13.54
2017-10-13T00:45:32.376Z,13.53
2017-10-13T00:45:36.338Z,13.46
2017-10-13T00:45:40.445Z,13.54
2017-10-13T00:45:44.543Z,13.5
2017-10-13T00:45:48.641Z,13.51
2017-10-13T00:45:52.736Z,13.51
2017-10-13T00:45:56.842Z,13.5
2017-10-13T00:46:01.088Z,13.5
2017-10-13T00:46:05.283Z,13.47
2017-10-13T00:46:09.381Z,13.46
2017-10-13T00:46:13.482Z,13.47
2017-10-13T00:46:17.587Z,13.5
2017-10-13T00:46:21.954Z,13.48
2017-10-13T00:46:26.316Z,13.5
2017-10-13T00:46:30.278Z,13.43
2017-10-13T00:46:34.385Z,13.43
2017-10-13T00:46:38.349Z,13.5
2017-10-13T00:46:42.835Z,13.41
2017-10-13T00:46:47.328Z,13.47
2017-10-13T00:46:51.565Z,13.48
2017-10-13T00:46:55.926Z,13.48
2017-10-13T00:47:00.158Z,13.54
2017-10-13T00:47:04.722Z,13.46
2017-10-13T00:47:09.124Z,13.47
2017-10-13T00:47:13.234Z,13.46
2017-10-13T00:47:17.209Z,13.46
2017-10-13T00:47:21.442Z,13.47
2017-10-13T00:47:25.406Z,13.46
2017-10-13T00:47:29.501Z,13.44
2017-10-13T00:47:33.862Z,13.46
2017-10-13T00:47:37.973Z,13.44
2017-10-13T00:47:42.079Z,13.47
2017-10-13T00:47:46.451Z,13.5
2017-10-13T00:47:50.853Z,13.46
2017-10-13T00:47:54.951Z,13.46
2017-10-13T00:47:59.181Z,13.5
2017-10-13T00:48:03.144Z,13.47
2017-10-13T00:48:07.635Z,13.47
2017-10-13T00:48:11.866Z,13.43
2017-10-13T00:48:16.101Z,13.39
2017-10-13T00:48:20.457Z,13.41
2017-10-13T00:48:24.555Z,13.47
2017-10-13T00:48:28.530Z,13.48
2017-10-13T00:48:32.633Z,13.35
2017-10-13T00:48:36.988Z,13.43
2017-10-13T00:48:41.352Z,13.41
2017-10-13T00:48:45.724Z,13.44
2017-10-13T00:48:49.959Z,13.46
2017-10-13T00:48:54.448Z,13.44
2017-10-13T00:48:58.810Z,13.5
2017-10-13T00:49:03.296Z,13.5
2017-10-13T00:49:07.793Z,13.41
2017-10-13T00:49:12.021Z,13.35
2017-10-13T00:49:16.252Z,13.35
2017-10-13T00:49:20.879Z,13.39
2017-10-13T00:49:24.977Z,13.36
2017-10-13T00:49:29.084Z,13.44
2017-10-13T00:49:33.051Z,13.43
2017-10-13T00:49:37.148Z,13.36
2017-10-13T00:49:41.379Z,13.38
2017-10-13T00:49:45.481Z,13.44
2017-10-13T00:49:49.589Z,13.43
2017-10-13T00:49:53.558Z,13.36
2017-10-13T00:49:57.783Z,13.43
2017-10-13T00:50:02.362Z,13.48
2017-10-13T00:50:06.861Z,13.43
2017-10-13T00:50:11.096Z,13.36
2017-10-13T00:50:15.326Z,13.43
2017-10-13T00:50:19.159Z,13.38
2017-10-13T00:50:23.665Z,13.43
2017-10-13T00:50:27.893Z,13.48
2017-10-13T00:50:32.256Z,13.41
2017-10-13T00:50:36.221Z,13.38
2017-10-13T00:50:40.327Z,13.48
2017-10-13T00:50:44.420Z,13.41
2017-10-13T00:50:48.771Z,13.36
2017-10-13T00:50:52.880Z,13.44
2017-10-13T00:50:57.235Z,13.48
2017-10-13T00:51:01.331Z,13.36
2017-10-13T00:51:05.731Z,13.35
2017-10-13T00:51:09.693Z,13.44
2017-10-13T00:51:13.672Z,13.43
2017-10-13T00:51:17.902Z,13.41
2017-10-13T00:51:22.017Z,13.36
2017-10-13T00:51:26.251Z,13.31
2017-10-13T00:51:30.479Z,13.32
2017-10-13T00:51:34.442Z,13.41
2017-10-13T00:51:38.822Z,13.28
2017-10-13T00:51:42.921Z,13.43
2017-10-13T00:51:47.145Z,13.39
2017-10-13T00:51:51.256Z,13.43
2017-10-13T00:51:55.236Z,13.31
2017-10-13T00:51:59.464Z,13.38
2017-10-13T00:52:03.903Z,13.29
2017-10-13T00:52:08.001Z,13.44
2017-10-13T00:52:12.363Z,13.38
2017-10-13T00:52:16.746Z,13.41
2017-10-13T00:52:20.847Z,13.41
2017-10-13T00:52:24.950Z,13.39
2017-10-13T00:52:29.570Z,13.41
2017-10-13T00:52:33.797Z,13.39
2017-10-13T00:52:37.767Z,13.38
2017-10-13T00:52:41.859Z,13.43
2017-10-13T00:52:46.099Z,13.41
2017-10-13T00:52:50.584Z,13.35
2017-10-13T00:52:54.422Z,13.36
2017-10-13T00:52:58.523Z,13.38
2017-10-13T00:53:02.721Z,13.38
2017-10-13T00:53:07.107Z,13.35
2017-10-13T00:53:11.203Z,13.31
2017-10-13T00:53:15.436Z,13.39
2017-10-13T00:53:19.398Z,13.38
2017-10-13T00:53:23.632Z,13.39
2017-10-13T00:53:27.862Z,13.38
2017-10-13T00:53:32.231Z,13.31
2017-10-13T00:53:36.206Z,13.35
2017-10-13T00:53:40.311Z,13.38
2017-10-13T00:53:44.545Z,13.35
2017-10-13T00:53:49.164Z,13.32
2017-10-13T00:53:53.259Z,13.36
2017-10-13T00:53:57.376Z,13.35
2017-10-13T00:54:01.501Z,13.31
2017-10-13T00:54:05.746Z,13.35
2017-10-13T00:54:09.973Z,13.32